THY9521 SPJC-SEGU
Flight info
| Callsign | THY9521 |
|---|---|
| Flight time | 1h 38m |
| Altitude | 36000 |
| Route | ISREN UL780 EVRED |
| Aircraft | B738/M-SDE2E3FGHIRWXY/LB1 |
Departure
| Time | 2026-04-20 16:20 |
|---|---|
| Airport | Jorge Chávez International Airport (SPJC) |
Arrival
| Time | 2026-04-20 17:58 |
|---|---|
| Airport | José Joaquín de Olmedo International Airport (SEGU) |
| Time | Latitude | Longitude | Altitude | Speed | Heading |
|---|---|---|---|---|---|
| 2026-04-20 15:58 | -12.02404 | -77.10906 | 91 ft | 0 kts | 64° |
| 2026-04-20 16:12 | -12.02409 | -77.10917 | 91 ft | 4 kts | 64° |
| 2026-04-20 16:13 | -12.02421 | -77.10942 | 91 ft | 4 kts | 64° |
| 2026-04-20 16:13 | -12.02434 | -77.10966 | 91 ft | 4 kts | 56° |
| 2026-04-20 16:13 | -12.02451 | -77.10986 | 89 ft | 4 kts | 28° |
| 2026-04-20 16:13 | -12.02475 | -77.10991 | 90 ft | 4 kts | 340° |
| 2026-04-20 16:14 | -12.02484 | -77.10987 | 90 ft | 1 kts | 334° |
| 2026-04-20 16:16 | -12.02475 | -77.10991 | 90 ft | 4 kts | 334° |
| 2026-04-20 16:16 | -12.02427 | -77.11015 | 91 ft | 12 kts | 334° |
| 2026-04-20 16:16 | -12.02332 | -77.11062 | 90 ft | 19 kts | 334° |
| 2026-04-20 16:16 | -12.02189 | -77.11106 | 91 ft | 25 kts | 359° |
| 2026-04-20 16:17 | -12.02022 | -77.11178 | 90 ft | 26 kts | 335° |
| 2026-04-20 16:17 | -12.01898 | -77.11320 | 81 ft | 29 kts | 298° |
| 2026-04-20 16:17 | -12.01752 | -77.11436 | 74 ft | 27 kts | 335° |
| 2026-04-20 16:17 | -12.01577 | -77.11523 | 62 ft | 27 kts | 334° |
| 2026-04-20 16:18 | -12.01398 | -77.11611 | 66 ft | 24 kts | 333° |
| 2026-04-20 16:18 | -12.01236 | -77.11692 | 63 ft | 28 kts | 334° |
| 2026-04-20 16:18 | -12.01057 | -77.11780 | 60 ft | 29 kts | 334° |
| 2026-04-20 16:18 | -12.00877 | -77.11869 | 57 ft | 30 kts | 334° |
| 2026-04-20 16:19 | -12.00698 | -77.11965 | 57 ft | 28 kts | 312° |
| 2026-04-20 16:19 | -12.00743 | -77.12122 | 52 ft | 21 kts | 197° |
| 2026-04-20 16:19 | -12.00887 | -77.12074 | 51 ft | 34 kts | 154° |
| 2026-04-20 16:19 | -12.01338 | -77.11851 | 61 ft | 107 kts | 154° |
| 2026-04-20 16:20 | -12.02188 | -77.11442 | 128 ft | 160 kts | 156° |
| 2026-04-20 16:20 | -12.03224 | -77.10953 | 837 ft | 167 kts | 159° |
| 2026-04-20 16:20 | -12.04266 | -77.10465 | 1724 ft | 163 kts | 155° |
| 2026-04-20 16:20 | -12.05324 | -77.09929 | 2325 ft | 180 kts | 154° |
| 2026-04-20 16:21 | -12.06553 | -77.09306 | 2606 ft | 212 kts | 154° |
| 2026-04-20 16:21 | -12.07954 | -77.08604 | 2835 ft | 236 kts | 154° |
| 2026-04-20 16:21 | -12.09488 | -77.07839 | 3221 ft | 253 kts | 154° |
| 2026-04-20 16:21 | -12.11105 | -77.07036 | 3872 ft | 261 kts | 154° |
| 2026-04-20 16:22 | -12.12750 | -77.06237 | 4713 ft | 264 kts | 159° |
| 2026-04-20 16:22 | -12.14572 | -77.06018 | 5405 ft | 268 kts | 191° |
| 2026-04-20 16:22 | -12.16272 | -77.06746 | 5818 ft | 267 kts | 220° |
| 2026-04-20 16:22 | -12.17365 | -77.08266 | 6374 ft | 269 kts | 250° |
| 2026-04-20 16:23 | -12.17686 | -77.10130 | 7151 ft | 268 kts | 273° |
| 2026-04-20 16:23 | -12.17466 | -77.12033 | 7878 ft | 271 kts | 279° |
| 2026-04-20 16:23 | -12.17149 | -77.13954 | 8577 ft | 276 kts | 279° |
| 2026-04-20 16:23 | -12.16822 | -77.15898 | 9297 ft | 280 kts | 279° |
| 2026-04-20 16:24 | -12.16503 | -77.17875 | 10021 ft | 283 kts | 278° |
| 2026-04-20 16:24 | -12.16192 | -77.19880 | 10447 ft | 298 kts | 279° |
| 2026-04-20 16:24 | -12.15861 | -77.22060 | 10611 ft | 322 kts | 278° |
| 2026-04-20 16:24 | -12.15498 | -77.24389 | 10791 ft | 342 kts | 282° |
| 2026-04-20 16:25 | -12.14568 | -77.26650 | 11216 ft | 350 kts | 305° |
| 2026-04-20 16:25 | -12.12872 | -77.28414 | 11963 ft | 349 kts | 323° |
| 2026-04-20 16:25 | -12.10882 | -77.29853 | 12615 ft | 353 kts | 326° |
| 2026-04-20 16:25 | -12.08828 | -77.31258 | 13245 ft | 356 kts | 326° |
| 2026-04-20 16:26 | -12.06763 | -77.32658 | 13973 ft | 357 kts | 326° |
| 2026-04-20 16:26 | -12.04682 | -77.34076 | 14527 ft | 362 kts | 326° |
| 2026-04-20 16:26 | -12.02584 | -77.35519 | 15125 ft | 365 kts | 326° |
| 2026-04-20 16:26 | -12.00477 | -77.36979 | 15774 ft | 367 kts | 326° |
| 2026-04-20 16:27 | -11.98357 | -77.38455 | 16394 ft | 370 kts | 326° |
| 2026-04-20 16:27 | -11.96225 | -77.39942 | 16985 ft | 373 kts | 326° |
| 2026-04-20 16:27 | -11.94075 | -77.41444 | 17582 ft | 376 kts | 327° |
| 2026-04-20 16:27 | -11.91939 | -77.42936 | 18158 ft | 379 kts | 327° |
| 2026-04-20 16:28 | -11.89754 | -77.44463 | 18648 ft | 382 kts | 327° |
| 2026-04-20 16:28 | -11.87545 | -77.46006 | 19119 ft | 385 kts | 326° |
| 2026-04-20 16:28 | -11.85322 | -77.47559 | 19586 ft | 389 kts | 326° |
| 2026-04-20 16:28 | -11.83078 | -77.49126 | 20043 ft | 392 kts | 326° |
| 2026-04-20 16:29 | -11.80820 | -77.50703 | 20497 ft | 395 kts | 326° |
| 2026-04-20 16:29 | -11.78535 | -77.52297 | 20943 ft | 399 kts | 326° |
| 2026-04-20 16:29 | -11.76209 | -77.53861 | 21382 ft | 402 kts | 328° |
| 2026-04-20 16:29 | -11.73841 | -77.55339 | 21813 ft | 405 kts | 329° |
| 2026-04-20 16:30 | -11.71409 | -77.56812 | 22238 ft | 408 kts | 329° |
| 2026-04-20 16:30 | -11.68954 | -77.58288 | 22648 ft | 411 kts | 329° |
| 2026-04-20 16:30 | -11.66482 | -77.59779 | 23057 ft | 414 kts | 329° |
| 2026-04-20 16:30 | -11.63993 | -77.61289 | 23456 ft | 417 kts | 328° |
| 2026-04-20 16:31 | -11.61487 | -77.62817 | 23795 ft | 420 kts | 328° |
| 2026-04-20 16:31 | -11.58971 | -77.64355 | 24138 ft | 422 kts | 328° |
| 2026-04-20 16:31 | -11.56445 | -77.65902 | 24479 ft | 425 kts | 328° |
| 2026-04-20 16:31 | -11.53899 | -77.67463 | 24816 ft | 427 kts | 328° |
| 2026-04-20 16:32 | -11.51351 | -77.69025 | 25152 ft | 429 kts | 328° |
| 2026-04-20 16:32 | -11.48788 | -77.70596 | 25479 ft | 431 kts | 328° |
| 2026-04-20 16:32 | -11.46210 | -77.72175 | 25801 ft | 433 kts | 328° |
| 2026-04-20 16:32 | -11.43622 | -77.73761 | 26125 ft | 435 kts | 328° |
| 2026-04-20 16:33 | -11.41019 | -77.75355 | 26432 ft | 437 kts | 328° |
| 2026-04-20 16:33 | -11.38406 | -77.76954 | 26738 ft | 439 kts | 328° |
| 2026-04-20 16:33 | -11.35813 | -77.78542 | 27032 ft | 441 kts | 328° |
| 2026-04-20 16:33 | -11.33172 | -77.80158 | 27330 ft | 443 kts | 328° |
| 2026-04-20 16:34 | -11.30518 | -77.81782 | 27621 ft | 446 kts | 328° |
| 2026-04-20 16:34 | -11.27854 | -77.83411 | 27914 ft | 448 kts | 328° |
| 2026-04-20 16:34 | -11.25175 | -77.85049 | 28196 ft | 449 kts | 328° |
| 2026-04-20 16:34 | -11.22481 | -77.86696 | 28470 ft | 452 kts | 328° |
| 2026-04-20 16:35 | -11.19783 | -77.88346 | 28743 ft | 453 kts | 328° |
| 2026-04-20 16:35 | -11.17074 | -77.90002 | 29011 ft | 455 kts | 328° |
| 2026-04-20 16:35 | -11.14383 | -77.91647 | 29259 ft | 458 kts | 328° |
| 2026-04-20 16:35 | -11.11641 | -77.93322 | 29512 ft | 459 kts | 328° |
| 2026-04-20 16:36 | -11.08892 | -77.95001 | 29765 ft | 461 kts | 328° |
| 2026-04-20 16:36 | -11.06129 | -77.96687 | 30015 ft | 463 kts | 329° |
| 2026-04-20 16:36 | -11.03313 | -77.98293 | 30223 ft | 465 kts | 331° |
| 2026-04-20 16:36 | -11.00441 | -77.99816 | 30442 ft | 466 kts | 332° |
| 2026-04-20 16:37 | -10.97540 | -78.01307 | 30675 ft | 467 kts | 332° |
| 2026-04-20 16:37 | -10.94676 | -78.02769 | 30969 ft | 466 kts | 332° |
| 2026-04-20 16:37 | -10.91793 | -78.04248 | 31322 ft | 463 kts | 332° |
| 2026-04-20 16:37 | -10.88922 | -78.05732 | 31694 ft | 461 kts | 332° |
| 2026-04-20 16:38 | -10.86074 | -78.07214 | 32032 ft | 459 kts | 332° |
| 2026-04-20 16:38 | -10.83236 | -78.08698 | 32345 ft | 458 kts | 332° |
| 2026-04-20 16:38 | -10.80406 | -78.10182 | 32685 ft | 457 kts | 332° |
| 2026-04-20 16:38 | -10.77582 | -78.11663 | 33035 ft | 455 kts | 332° |
| 2026-04-20 16:39 | -10.74771 | -78.13138 | 33391 ft | 453 kts | 332° |
| 2026-04-20 16:39 | -10.71968 | -78.14608 | 33768 ft | 451 kts | 332° |
| 2026-04-20 16:39 | -10.69183 | -78.16069 | 34112 ft | 450 kts | 332° |
| 2026-04-20 16:39 | -10.66401 | -78.17526 | 34400 ft | 448 kts | 332° |
| 2026-04-20 16:40 | -10.63633 | -78.18976 | 34673 ft | 448 kts | 332° |
| 2026-04-20 16:40 | -10.60863 | -78.20427 | 34947 ft | 447 kts | 332° |
| 2026-04-20 16:40 | -10.58101 | -78.21873 | 35215 ft | 446 kts | 332° |
| 2026-04-20 16:40 | -10.55344 | -78.23316 | 35492 ft | 445 kts | 332° |
| 2026-04-20 16:41 | -10.52624 | -78.24740 | 35765 ft | 444 kts | 332° |
| 2026-04-20 16:41 | -10.49878 | -78.26177 | 36021 ft | 443 kts | 332° |
| 2026-04-20 16:41 | -10.44342 | -78.29073 | 36031 ft | 448 kts | 332° |
| 2026-04-20 16:42 | -10.38809 | -78.31966 | 36021 ft | 444 kts | 332° |
| 2026-04-20 16:42 | -10.33340 | -78.34824 | 36032 ft | 441 kts | 332° |
| 2026-04-20 16:43 | -10.27924 | -78.37654 | 36036 ft | 440 kts | 332° |
| 2026-04-20 16:43 | -10.22474 | -78.40501 | 36039 ft | 440 kts | 332° |
| 2026-04-20 16:44 | -10.17029 | -78.43344 | 36038 ft | 440 kts | 332° |
| 2026-04-20 16:44 | -10.11575 | -78.46190 | 36042 ft | 441 kts | 333° |
| 2026-04-20 16:45 | -10.06104 | -78.49044 | 36045 ft | 442 kts | 332° |
| 2026-04-20 16:45 | -10.00635 | -78.51897 | 36050 ft | 443 kts | 333° |
| 2026-04-20 16:46 | -9.95181 | -78.54739 | 36050 ft | 444 kts | 332° |
| 2026-04-20 16:46 | -9.89677 | -78.57608 | 36052 ft | 444 kts | 333° |
| 2026-04-20 16:47 | -9.84170 | -78.60477 | 36048 ft | 445 kts | 333° |
| 2026-04-20 16:47 | -9.78655 | -78.63349 | 36043 ft | 446 kts | 333° |
| 2026-04-20 16:48 | -9.73165 | -78.66208 | 36029 ft | 446 kts | 333° |
| 2026-04-20 16:48 | -9.67436 | -78.68593 | 36018 ft | 446 kts | 344° |
| 2026-04-20 16:49 | -9.61432 | -78.70189 | 36000 ft | 446 kts | 345° |
| 2026-04-20 16:49 | -9.55423 | -78.71751 | 35997 ft | 446 kts | 345° |
| 2026-04-20 16:50 | -9.50432 | -78.73074 | 35987 ft | 445 kts | 345° |
| 2026-04-20 16:50 | -9.44444 | -78.74685 | 35982 ft | 445 kts | 345° |
| 2026-04-20 16:51 | -9.38463 | -78.76302 | 35982 ft | 445 kts | 345° |
| 2026-04-20 16:51 | -9.32475 | -78.77920 | 35977 ft | 445 kts | 345° |
| 2026-04-20 16:52 | -9.26532 | -78.79525 | 35979 ft | 445 kts | 345° |
| 2026-04-20 16:52 | -9.20552 | -78.81139 | 35978 ft | 445 kts | 345° |
| 2026-04-20 16:53 | -9.14568 | -78.82753 | 35978 ft | 444 kts | 345° |
| 2026-04-20 16:53 | -9.08585 | -78.84367 | 35981 ft | 445 kts | 345° |
| 2026-04-20 16:54 | -9.02610 | -78.85978 | 35979 ft | 445 kts | 345° |
| 2026-04-20 16:54 | -8.96625 | -78.87591 | 35980 ft | 445 kts | 345° |
| 2026-04-20 16:55 | -8.90683 | -78.89192 | 35981 ft | 445 kts | 345° |
| 2026-04-20 16:55 | -8.84695 | -78.90804 | 35976 ft | 445 kts | 345° |
| 2026-04-20 16:56 | -8.78705 | -78.92417 | 35979 ft | 445 kts | 345° |
| 2026-04-20 16:56 | -8.72708 | -78.94031 | 35979 ft | 445 kts | 345° |
| 2026-04-20 16:57 | -8.66711 | -78.95644 | 35980 ft | 445 kts | 345° |
| 2026-04-20 16:57 | -8.60714 | -78.97257 | 35977 ft | 446 kts | 345° |
| 2026-04-20 16:58 | -8.54720 | -78.98868 | 35975 ft | 446 kts | 345° |
| 2026-04-20 16:58 | -8.48764 | -79.00469 | 35974 ft | 446 kts | 345° |
| 2026-04-20 16:59 | -8.42770 | -79.02080 | 35976 ft | 446 kts | 345° |
| 2026-04-20 16:59 | -8.36775 | -79.03690 | 35976 ft | 446 kts | 345° |
| 2026-04-20 17:00 | -8.27779 | -79.06106 | 35972 ft | 445 kts | 345° |
| 2026-04-20 17:01 | -8.21824 | -79.07705 | 35973 ft | 445 kts | 345° |
| 2026-04-20 17:01 | -8.15832 | -79.09313 | 35968 ft | 445 kts | 345° |
| 2026-04-20 17:02 | -8.09840 | -79.10919 | 35967 ft | 445 kts | 345° |
| 2026-04-20 17:02 | -8.03729 | -79.11941 | 35968 ft | 446 kts | 352° |
| 2026-04-20 17:03 | -7.97567 | -79.12676 | 35968 ft | 446 kts | 353° |
| 2026-04-20 17:03 | -7.91397 | -79.13416 | 35969 ft | 446 kts | 353° |
| 2026-04-20 17:04 | -7.85228 | -79.14182 | 35979 ft | 447 kts | 352° |
| 2026-04-20 17:04 | -7.79048 | -79.14962 | 35979 ft | 447 kts | 352° |
| 2026-04-20 17:05 | -7.72901 | -79.15740 | 35994 ft | 447 kts | 352° |
| 2026-04-20 17:05 | -7.66716 | -79.16523 | 35992 ft | 448 kts | 352° |
| 2026-04-20 17:06 | -7.60534 | -79.17304 | 36001 ft | 447 kts | 352° |
| 2026-04-20 17:06 | -7.54350 | -79.18086 | 36005 ft | 447 kts | 353° |
| 2026-04-20 17:07 | -7.48165 | -79.18867 | 36005 ft | 448 kts | 353° |
| 2026-04-20 17:07 | -7.42024 | -79.19643 | 36001 ft | 447 kts | 354° |
| 2026-04-20 17:08 | -7.35832 | -79.20425 | 36021 ft | 447 kts | 354° |
| 2026-04-20 17:08 | -7.29649 | -79.21204 | 36026 ft | 449 kts | 354° |
| 2026-04-20 17:09 | -7.23443 | -79.21987 | 36026 ft | 450 kts | 354° |
| 2026-04-20 17:09 | -7.17209 | -79.22773 | 36031 ft | 452 kts | 354° |
| 2026-04-20 17:10 | -7.10963 | -79.23561 | 36034 ft | 452 kts | 354° |
| 2026-04-20 17:10 | -7.04750 | -79.24344 | 36040 ft | 453 kts | 354° |
| 2026-04-20 17:11 | -6.98495 | -79.25132 | 36043 ft | 453 kts | 354° |
| 2026-04-20 17:11 | -6.92244 | -79.25920 | 36046 ft | 452 kts | 354° |
| 2026-04-20 17:12 | -6.86001 | -79.26707 | 36052 ft | 452 kts | 354° |
| 2026-04-20 17:12 | -6.79750 | -79.27494 | 36051 ft | 451 kts | 354° |
| 2026-04-20 17:13 | -6.73553 | -79.28274 | 36056 ft | 452 kts | 354° |
| 2026-04-20 17:13 | -6.67313 | -79.29059 | 36062 ft | 452 kts | 354° |
| 2026-04-20 17:14 | -6.61078 | -79.29843 | 36064 ft | 452 kts | 354° |
| 2026-04-20 17:14 | -6.54837 | -79.30629 | 36067 ft | 452 kts | 354° |
| 2026-04-20 17:15 | -6.48591 | -79.31414 | 36060 ft | 452 kts | 354° |
| 2026-04-20 17:15 | -6.42339 | -79.32200 | 36060 ft | 453 kts | 354° |
| 2026-04-20 17:16 | -6.36077 | -79.32987 | 36074 ft | 453 kts | 354° |
| 2026-04-20 17:16 | -6.29822 | -79.33774 | 36076 ft | 453 kts | 354° |
| 2026-04-20 17:17 | -6.23591 | -79.34557 | 36063 ft | 453 kts | 354° |
| 2026-04-20 17:17 | -6.17345 | -79.35341 | 36062 ft | 453 kts | 354° |
| 2026-04-20 17:18 | -6.11086 | -79.36128 | 36069 ft | 452 kts | 354° |
| 2026-04-20 17:18 | -6.04874 | -79.36907 | 36068 ft | 452 kts | 354° |
| 2026-04-20 17:19 | -5.98631 | -79.37690 | 36071 ft | 452 kts | 354° |
| 2026-04-20 17:19 | -5.92381 | -79.38475 | 36069 ft | 452 kts | 354° |
| 2026-04-20 17:20 | -5.86137 | -79.39259 | 36070 ft | 452 kts | 354° |
| 2026-04-20 17:20 | -5.79895 | -79.40042 | 36068 ft | 452 kts | 354° |
| 2026-04-20 17:21 | -5.73648 | -79.40825 | 36082 ft | 452 kts | 354° |
| 2026-04-20 17:21 | -5.67411 | -79.41607 | 36075 ft | 451 kts | 354° |
| 2026-04-20 17:22 | -5.61185 | -79.42388 | 36080 ft | 452 kts | 354° |
| 2026-04-20 17:22 | -5.54940 | -79.43171 | 36092 ft | 452 kts | 354° |
| 2026-04-20 17:23 | -5.48719 | -79.43951 | 36095 ft | 453 kts | 354° |
| 2026-04-20 17:23 | -5.42441 | -79.44737 | 36102 ft | 454 kts | 354° |
| 2026-04-20 17:24 | -5.36166 | -79.45522 | 36108 ft | 455 kts | 354° |
| 2026-04-20 17:24 | -5.29911 | -79.46306 | 36113 ft | 455 kts | 354° |
| 2026-04-20 17:25 | -5.23616 | -79.47094 | 36120 ft | 456 kts | 354° |
| 2026-04-20 17:25 | -5.17309 | -79.47883 | 36120 ft | 456 kts | 354° |
| 2026-04-20 17:26 | -5.11003 | -79.48672 | 36121 ft | 456 kts | 353° |
| 2026-04-20 17:26 | -5.04740 | -79.49456 | 36123 ft | 456 kts | 353° |
| 2026-04-20 17:27 | -4.98442 | -79.50244 | 36134 ft | 455 kts | 353° |
| 2026-04-20 17:27 | -4.92142 | -79.51031 | 36125 ft | 455 kts | 354° |
| 2026-04-20 17:28 | -4.85860 | -79.51817 | 36129 ft | 454 kts | 354° |
| 2026-04-20 17:28 | -4.79587 | -79.52602 | 36123 ft | 454 kts | 354° |
| 2026-04-20 17:29 | -4.73322 | -79.53385 | 36125 ft | 453 kts | 354° |
| 2026-04-20 17:29 | -4.67100 | -79.54163 | 36121 ft | 453 kts | 354° |
| 2026-04-20 17:30 | -4.60846 | -79.54944 | 36120 ft | 453 kts | 354° |
| 2026-04-20 17:30 | -4.54587 | -79.55726 | 36111 ft | 453 kts | 354° |
| 2026-04-20 17:31 | -4.48327 | -79.56512 | 36101 ft | 453 kts | 354° |
| 2026-04-20 17:31 | -4.42062 | -79.57315 | 36106 ft | 453 kts | 354° |
| 2026-04-20 17:32 | -4.35854 | -79.58115 | 36093 ft | 453 kts | 354° |
| 2026-04-20 17:32 | -4.29599 | -79.58918 | 36094 ft | 453 kts | 354° |
| 2026-04-20 17:33 | -4.23344 | -79.59721 | 36110 ft | 453 kts | 354° |
| 2026-04-20 17:33 | -4.17061 | -79.60526 | 35731 ft | 460 kts | 354° |
| 2026-04-20 17:33 | -4.13876 | -79.60934 | 35167 ft | 460 kts | 354° |
| 2026-04-20 17:34 | -4.10694 | -79.61342 | 34539 ft | 462 kts | 354° |
| 2026-04-20 17:34 | -4.07503 | -79.61751 | 33935 ft | 462 kts | 354° |
| 2026-04-20 17:34 | -4.04324 | -79.62159 | 33382 ft | 459 kts | 354° |
| 2026-04-20 17:34 | -4.01169 | -79.62563 | 32893 ft | 455 kts | 353° |
| 2026-04-20 17:35 | -3.98040 | -79.62965 | 32401 ft | 452 kts | 353° |
| 2026-04-20 17:35 | -3.94935 | -79.63362 | 31929 ft | 448 kts | 353° |
| 2026-04-20 17:35 | -3.91893 | -79.63752 | 31456 ft | 445 kts | 352° |
| 2026-04-20 17:35 | -3.88835 | -79.64144 | 30986 ft | 442 kts | 352° |
| 2026-04-20 17:36 | -3.85790 | -79.64534 | 30504 ft | 439 kts | 352° |
| 2026-04-20 17:36 | -3.82767 | -79.64921 | 29993 ft | 437 kts | 352° |
| 2026-04-20 17:36 | -3.79759 | -79.65306 | 29453 ft | 433 kts | 352° |
| 2026-04-20 17:36 | -3.76777 | -79.65689 | 28941 ft | 429 kts | 352° |
| 2026-04-20 17:37 | -3.73820 | -79.66067 | 28464 ft | 425 kts | 352° |
| 2026-04-20 17:37 | -3.70902 | -79.66441 | 27995 ft | 421 kts | 352° |
| 2026-04-20 17:37 | -3.68005 | -79.66812 | 27522 ft | 417 kts | 352° |
| 2026-04-20 17:37 | -3.65178 | -79.67174 | 27064 ft | 414 kts | 352° |
| 2026-04-20 17:38 | -3.62332 | -79.67539 | 26597 ft | 410 kts | 352° |
| 2026-04-20 17:38 | -3.59511 | -79.67900 | 26137 ft | 407 kts | 352° |
| 2026-04-20 17:38 | -3.56715 | -79.68258 | 25677 ft | 404 kts | 352° |
| 2026-04-20 17:38 | -3.53930 | -79.68615 | 25202 ft | 402 kts | 352° |
| 2026-04-20 17:39 | -3.51158 | -79.68970 | 24733 ft | 400 kts | 352° |
| 2026-04-20 17:39 | -3.48394 | -79.69323 | 24275 ft | 398 kts | 352° |
| 2026-04-20 17:39 | -3.45650 | -79.69674 | 23815 ft | 397 kts | 352° |
| 2026-04-20 17:39 | -3.42920 | -79.70024 | 23316 ft | 395 kts | 352° |
| 2026-04-20 17:40 | -3.41116 | -79.70255 | 22991 ft | 393 kts | 352° |
| 2026-04-20 17:40 | -3.37544 | -79.70712 | 22371 ft | 388 kts | 352° |
| 2026-04-20 17:40 | -3.34870 | -79.71054 | 21925 ft | 385 kts | 352° |
| 2026-04-20 17:40 | -3.33111 | -79.71279 | 21641 ft | 382 kts | 352° |
| 2026-04-20 17:41 | -3.30484 | -79.71615 | 21207 ft | 379 kts | 352° |
| 2026-04-20 17:41 | -3.27880 | -79.71948 | 20798 ft | 375 kts | 352° |
| 2026-04-20 17:41 | -3.25298 | -79.72279 | 20363 ft | 372 kts | 352° |
| 2026-04-20 17:41 | -3.22736 | -79.72607 | 19961 ft | 370 kts | 352° |
| 2026-04-20 17:42 | -3.20184 | -79.72933 | 19549 ft | 367 kts | 351° |
| 2026-04-20 17:42 | -3.17655 | -79.73257 | 19125 ft | 366 kts | 352° |
| 2026-04-20 17:42 | -3.15133 | -79.73580 | 18692 ft | 365 kts | 351° |
| 2026-04-20 17:42 | -3.12623 | -79.73901 | 18269 ft | 363 kts | 352° |
| 2026-04-20 17:43 | -3.10121 | -79.74221 | 17784 ft | 361 kts | 352° |
| 2026-04-20 17:43 | -3.07672 | -79.74535 | 17357 ft | 358 kts | 352° |
| 2026-04-20 17:43 | -3.05207 | -79.74850 | 16932 ft | 355 kts | 352° |
| 2026-04-20 17:43 | -3.02764 | -79.75162 | 16509 ft | 352 kts | 352° |
| 2026-04-20 17:44 | -3.00339 | -79.75472 | 16099 ft | 350 kts | 352° |
| 2026-04-20 17:44 | -2.97937 | -79.75779 | 15675 ft | 347 kts | 352° |
| 2026-04-20 17:44 | -2.95544 | -79.76086 | 15268 ft | 345 kts | 352° |
| 2026-04-20 17:44 | -2.93167 | -79.76390 | 14857 ft | 343 kts | 352° |
| 2026-04-20 17:45 | -2.90803 | -79.76693 | 14459 ft | 341 kts | 352° |
| 2026-04-20 17:45 | -2.88451 | -79.76993 | 14055 ft | 340 kts | 352° |
| 2026-04-20 17:45 | -2.86109 | -79.77293 | 13621 ft | 338 kts | 352° |
| 2026-04-20 17:45 | -2.83802 | -79.77703 | 13179 ft | 336 kts | 341° |
| 2026-04-20 17:46 | -2.81785 | -79.78850 | 12771 ft | 333 kts | 319° |
| 2026-04-20 17:46 | -2.80345 | -79.80647 | 12370 ft | 332 kts | 299° |
| 2026-04-20 17:46 | -2.79583 | -79.82806 | 11951 ft | 331 kts | 279° |
| 2026-04-20 17:46 | -2.79413 | -79.85094 | 11571 ft | 329 kts | 273° |
| 2026-04-20 17:47 | -2.79345 | -79.87326 | 11366 ft | 320 kts | 272° |
| 2026-04-20 17:47 | -2.79275 | -79.89523 | 11188 ft | 311 kts | 273° |
| 2026-04-20 17:47 | -2.78915 | -79.91609 | 11029 ft | 300 kts | 294° |
| 2026-04-20 17:47 | -2.77777 | -79.93294 | 10843 ft | 291 kts | 317° |
| 2026-04-20 17:48 | -2.76122 | -79.94423 | 10542 ft | 288 kts | 337° |
| 2026-04-20 17:48 | -2.74224 | -79.94985 | 10403 ft | 279 kts | 347° |
| 2026-04-20 17:48 | -2.72349 | -79.95393 | 10086 ft | 279 kts | 348° |
| 2026-04-20 17:48 | -2.70440 | -79.95779 | 9758 ft | 279 kts | 349° |
| 2026-04-20 17:49 | -2.68530 | -79.96170 | 9308 ft | 278 kts | 348° |
| 2026-04-20 17:49 | -2.66660 | -79.96562 | 8980 ft | 272 kts | 348° |
| 2026-04-20 17:49 | -2.64851 | -79.96945 | 8668 ft | 267 kts | 348° |
| 2026-04-20 17:49 | -2.63056 | -79.97328 | 8362 ft | 261 kts | 348° |
| 2026-04-20 17:50 | -2.61288 | -79.97707 | 8079 ft | 260 kts | 348° |
| 2026-04-20 17:50 | -2.59511 | -79.98088 | 7797 ft | 262 kts | 348° |
| 2026-04-20 17:50 | -2.57717 | -79.98474 | 7517 ft | 265 kts | 348° |
| 2026-04-20 17:50 | -2.55916 | -79.98861 | 7212 ft | 265 kts | 348° |
| 2026-04-20 17:51 | -2.54116 | -79.99249 | 6922 ft | 265 kts | 348° |
| 2026-04-20 17:51 | -2.52313 | -79.99638 | 6635 ft | 265 kts | 348° |
| 2026-04-20 17:51 | -2.50500 | -80.00029 | 6322 ft | 267 kts | 348° |
| 2026-04-20 17:51 | -2.48686 | -80.00421 | 6004 ft | 266 kts | 348° |
| 2026-04-20 17:52 | -2.46875 | -80.00811 | 5712 ft | 266 kts | 348° |
| 2026-04-20 17:52 | -2.45064 | -80.01201 | 5401 ft | 265 kts | 348° |
| 2026-04-20 17:52 | -2.43277 | -80.01587 | 5111 ft | 260 kts | 348° |
| 2026-04-20 17:52 | -2.41530 | -80.01963 | 4815 ft | 254 kts | 348° |
| 2026-04-20 17:53 | -2.39796 | -80.02027 | 4509 ft | 250 kts | 13° |
| 2026-04-20 17:53 | -2.38214 | -80.01396 | 4270 ft | 248 kts | 28° |
| 2026-04-20 17:53 | -2.36724 | -80.00532 | 3997 ft | 247 kts | 31° |
| 2026-04-20 17:53 | -2.35249 | -79.99650 | 3742 ft | 246 kts | 30° |
| 2026-04-20 17:54 | -2.33772 | -79.98779 | 3496 ft | 246 kts | 30° |
| 2026-04-20 17:54 | -2.32297 | -79.97921 | 3227 ft | 244 kts | 30° |
| 2026-04-20 17:54 | -2.30838 | -79.97074 | 2955 ft | 240 kts | 30° |
| 2026-04-20 17:54 | -2.29406 | -79.96245 | 2702 ft | 235 kts | 30° |
| 2026-04-20 17:55 | -2.28013 | -79.95442 | 2490 ft | 228 kts | 30° |
| 2026-04-20 17:55 | -2.26656 | -79.94656 | 2244 ft | 223 kts | 30° |
| 2026-04-20 17:55 | -2.25356 | -79.93907 | 1984 ft | 208 kts | 30° |
| 2026-04-20 17:55 | -2.24143 | -79.93209 | 1698 ft | 195 kts | 30° |
| 2026-04-20 17:56 | -2.22997 | -79.92548 | 1479 ft | 185 kts | 29° |
| 2026-04-20 17:56 | -2.21900 | -79.91916 | 1241 ft | 179 kts | 30° |
| 2026-04-20 17:56 | -2.20850 | -79.91311 | 1025 ft | 167 kts | 30° |
| 2026-04-20 17:56 | -2.19909 | -79.90769 | 826 ft | 148 kts | 30° |
| 2026-04-20 17:57 | -2.19048 | -79.90273 | 593 ft | 140 kts | 30° |
| 2026-04-20 17:57 | -2.18218 | -79.89793 | 394 ft | 136 kts | 30° |
| 2026-04-20 17:57 | -2.17394 | -79.89319 | 219 ft | 136 kts | 30° |
| 2026-04-20 17:57 | -2.16574 | -79.88850 | 41 ft | 131 kts | 30° |
| 2026-04-20 17:58 | -2.15889 | -79.88455 | 26 ft | 88 kts | 32° |
| 2026-04-20 17:58 | -2.15543 | -79.88253 | 28 ft | 30 kts | 30° |
| 2026-04-20 17:58 | -2.15367 | -79.88152 | 27 ft | 28 kts | 29° |
| 2026-04-20 17:58 | -2.15265 | -79.88215 | 27 ft | 19 kts | 301° |
| 2026-04-20 17:59 | -2.15203 | -79.88324 | 28 ft | 18 kts | 298° |
| 2026-04-20 17:59 | -2.15150 | -79.88405 | 28 ft | 6 kts | 347° |
| 2026-04-20 17:59 | -2.15114 | -79.88387 | 28 ft | 6 kts | 31° |
| 2026-04-20 17:59 | -2.15079 | -79.88366 | 28 ft | 6 kts | 31° |
| 2026-04-20 18:00 | -2.15041 | -79.88362 | 28 ft | 6 kts | 348° |
| 2026-04-20 18:00 | -2.15013 | -79.88391 | 28 ft | 6 kts | 304° |
| 2026-04-20 18:00 | -2.15001 | -79.88411 | 28 ft | 1 kts | 300° |
| 2026-04-20 18:00 | -2.15000 | -79.88414 | 28 ft | 0 kts | 300° |